RWL540 EDDC-EDDC

Flight info

Callsign RWL540
Flight time 0h 24m
Altitude 3000
Route REQ ILS APPR PRACTICE
Aircraft PA44/L-SDFGRY/S

Departure

Time 2026-05-07 13:42
Airport Dresden Airport (EDDC)

Arrival

Time 2026-05-07 14:06
Airport Dresden Airport (EDDC)
Time Latitude Longitude Altitude Speed Heading
2026-05-07 13:22 51.12387 13.75944 758 ft 0 kts 36°
2026-05-07 13:36 51.12388 13.75945 758 ft 0 kts 37°
2026-05-07 13:36 51.12406 13.75931 758 ft 5 kts 308°
2026-05-07 13:36 51.12423 13.75899 756 ft 5 kts 335°
2026-05-07 13:36 51.12467 13.75946 756 ft 12 kts 43°
2026-05-07 13:37 51.12517 13.76015 755 ft 17 kts 40°
2026-05-07 13:37 51.12626 13.76164 748 ft 22 kts 41°
2026-05-07 13:37 51.12744 13.76329 745 ft 23 kts 41°
2026-05-07 13:37 51.12898 13.76539 743 ft 22 kts 40°
2026-05-07 13:38 51.13012 13.76696 742 ft 22 kts 40°
2026-05-07 13:38 51.13092 13.76805 739 ft 23 kts 44°
2026-05-07 13:38 51.13214 13.76975 732 ft 25 kts 41°
2026-05-07 13:38 51.13349 13.77163 726 ft 26 kts 42°
2026-05-07 13:39 51.13489 13.77350 722 ft 26 kts 41°
2026-05-07 13:39 51.13624 13.77538 718 ft 25 kts 41°
2026-05-07 13:39 51.13745 13.77705 715 ft 16 kts 36°
2026-05-07 13:39 51.13810 13.77675 715 ft 9 kts 313°
2026-05-07 13:40 51.13848 13.77606 719 ft 10 kts 311°
2026-05-07 13:40 51.13906 13.77500 720 ft 15 kts 310°
2026-05-07 13:40 51.13914 13.77456 719 ft 0 kts 219°
2026-05-07 13:41 51.13853 13.77372 722 ft 40 kts 221°
2026-05-07 13:41 51.13485 13.76874 743 ft 94 kts 221°
2026-05-07 13:41 51.12924 13.76214 1023 ft 107 kts 218°
2026-05-07 13:42 51.12264 13.75596 1473 ft 109 kts 205°
2026-05-07 13:42 51.11570 13.74849 1617 ft 123 kts 220°
2026-05-07 13:42 51.10971 13.74034 2156 ft 105 kts 228°
2026-05-07 13:42 51.10609 13.72976 2375 ft 118 kts 262°
2026-05-07 13:43 51.10819 13.71783 2712 ft 115 kts 307°
2026-05-07 13:43 51.11365 13.70811 2540 ft 147 kts 316°
2026-05-07 13:43 51.12036 13.69642 2764 ft 133 kts 314°
2026-05-07 13:43 51.12710 13.68696 3002 ft 123 kts 333°
2026-05-07 13:44 51.13565 13.68414 3157 ft 126 kts 354°
2026-05-07 13:44 51.14481 13.68325 3111 ft 139 kts 358°
2026-05-07 13:44 51.15464 13.68508 3033 ft 139 kts 20°
2026-05-07 13:44 51.16247 13.69274 3153 ft 134 kts 35°
2026-05-07 13:45 51.17015 13.70200 3155 ft 133 kts 39°
2026-05-07 13:45 51.17611 13.71303 3280 ft 135 kts 50°
2026-05-07 13:45 51.18216 13.72575 2998 ft 145 kts 53°
2026-05-07 13:45 51.18858 13.73802 2869 ft 145 kts 45°
2026-05-07 13:46 51.19564 13.74946 2715 ft 140 kts 38°
2026-05-07 13:46 51.20295 13.75871 2418 ft 133 kts 36°
2026-05-07 13:46 51.20931 13.76684 2586 ft 108 kts 35°
2026-05-07 13:46 51.21530 13.77384 2541 ft 97 kts 32°
2026-05-07 13:47 51.22073 13.77968 2437 ft 98 kts 36°
2026-05-07 13:47 51.22537 13.78688 2505 ft 89 kts 41°
2026-05-07 13:47 51.22968 13.79374 2533 ft 92 kts 40°
2026-05-07 13:47 51.23469 13.80088 2431 ft 100 kts 45°
2026-05-07 13:48 51.23910 13.80885 2482 ft 92 kts 44°
2026-05-07 13:48 51.24372 13.81590 2494 ft 90 kts 42°
2026-05-07 13:48 51.24864 13.82316 2342 ft 100 kts 38°
2026-05-07 13:48 51.25387 13.82931 2354 ft 91 kts 49°
2026-05-07 13:49 51.25482 13.83932 2271 ft 102 kts 101°
2026-05-07 13:49 51.25008 13.84820 2208 ft 111 kts 148°
2026-05-07 13:49 51.24292 13.85241 2201 ft 112 kts 161°
2026-05-07 13:49 51.23519 13.85364 2258 ft 105 kts 174°
2026-05-07 13:50 51.22770 13.85406 2194 ft 110 kts 175°
2026-05-07 13:50 51.22018 13.85455 2150 ft 103 kts 174°
2026-05-07 13:50 51.21294 13.85482 2121 ft 108 kts 180°
2026-05-07 13:50 51.20608 13.85498 2210 ft 99 kts 176°
2026-05-07 13:51 51.19926 13.85653 2185 ft 96 kts 162°
2026-05-07 13:51 51.19282 13.85568 2292 ft 87 kts 197°
2026-05-07 13:51 51.18719 13.84917 2101 ft 95 kts 227°
2026-05-07 13:51 51.18233 13.84089 1864 ft 109 kts 228°
2026-05-07 13:52 51.17739 13.83179 1786 ft 110 kts 233°
2026-05-07 13:52 51.17293 13.82205 1536 ft 106 kts 234°
2026-05-07 13:52 51.16801 13.81391 1364 ft 103 kts 219°
2026-05-07 13:52 51.16278 13.80694 1281 ft 95 kts 217°
2026-05-07 13:53 51.15735 13.80048 1163 ft 98 kts 222°
2026-05-07 13:53 51.15232 13.79324 1029 ft 99 kts 222°
2026-05-07 13:53 51.14737 13.78561 882 ft 98 kts 224°
2026-05-07 13:53 51.14212 13.77876 764 ft 92 kts 221°
2026-05-07 13:54 51.13769 13.77262 725 ft 75 kts 223°
2026-05-07 13:54 51.13353 13.76693 803 ft 90 kts 219°
2026-05-07 13:54 51.12809 13.75969 1064 ft 110 kts 224°
2026-05-07 13:54 51.12289 13.75215 1493 ft 109 kts 225°
2026-05-07 13:55 51.11728 13.74390 1884 ft 104 kts 228°
2026-05-07 13:55 51.11212 13.73535 2259 ft 106 kts 231°
2026-05-07 13:55 51.10697 13.72629 2478 ft 116 kts 232°
2026-05-07 13:55 51.10274 13.71387 2420 ft 135 kts 265°
2026-05-07 13:56 51.10433 13.70050 2715 ft 120 kts 302°
2026-05-07 13:56 51.10994 13.69019 2774 ft 130 kts 316°
2026-05-07 13:56 51.11757 13.68208 2732 ft 140 kts 342°
2026-05-07 13:56 51.12780 13.68052 2454 ft 145 kts
2026-05-07 13:57 51.13704 13.68527 2433 ft 140 kts 27°
2026-05-07 13:57 51.14454 13.69490 2436 ft 138 kts 48°
2026-05-07 13:57 51.14955 13.70687 2676 ft 125 kts 60°
2026-05-07 13:57 51.15311 13.71943 2788 ft 125 kts 62°
2026-05-07 13:58 51.15755 13.73283 2641 ft 139 kts 59°
2026-05-07 13:58 51.16294 13.74628 2381 ft 147 kts 50°
2026-05-07 13:58 51.16890 13.75876 2318 ft 144 kts 50°
2026-05-07 13:58 51.17515 13.77006 2393 ft 139 kts 46°
2026-05-07 13:59 51.18152 13.78130 2403 ft 137 kts 43°
2026-05-07 13:59 51.18776 13.79208 2557 ft 132 kts 44°
2026-05-07 13:59 51.19424 13.80347 2358 ft 146 kts 47°
2026-05-07 13:59 51.20124 13.81513 2291 ft 143 kts 39°
2026-05-07 14:00 51.20814 13.82568 2312 ft 137 kts 38°
2026-05-07 14:00 51.21563 13.83434 2420 ft 127 kts 33°
2026-05-07 14:00 51.22229 13.84303 2511 ft 121 kts 40°
2026-05-07 14:00 51.22821 13.85196 2578 ft 114 kts 41°
2026-05-07 14:01 51.23338 13.86140 2551 ft 113 kts 68°
2026-05-07 14:01 51.23134 13.87249 2493 ft 110 kts 137°
2026-05-07 14:01 51.22425 13.87324 2472 ft 106 kts 193°
2026-05-07 14:01 51.21697 13.87105 2477 ft 108 kts 187°
2026-05-07 14:02 51.20942 13.86929 2478 ft 110 kts 189°
2026-05-07 14:02 51.20191 13.86634 2470 ft 114 kts 214°
2026-05-07 14:02 51.19770 13.85675 2543 ft 103 kts 245°
2026-05-07 14:02 51.19294 13.84762 2237 ft 110 kts 232°
2026-05-07 14:03 51.18790 13.83900 2004 ft 104 kts 218°
2026-05-07 14:03 51.18188 13.83275 1784 ft 110 kts 220°
2026-05-07 14:03 51.17614 13.82519 1683 ft 105 kts 219°
2026-05-07 14:03 51.17007 13.81859 1542 ft 99 kts 219°
2026-05-07 14:04 51.16491 13.81100 1431 ft 98 kts 228°
2026-05-07 14:04 51.16017 13.80257 1227 ft 101 kts 225°
2026-05-07 14:04 51.15443 13.79571 1061 ft 102 kts 218°
2026-05-07 14:04 51.14941 13.78888 926 ft 92 kts 227°
2026-05-07 14:05 51.14452 13.78211 816 ft 95 kts 222°
2026-05-07 14:05 51.13966 13.77535 737 ft 89 kts 224°
2026-05-07 14:05 51.13571 13.76971 726 ft 65 kts 228°
2026-05-07 14:05 51.13245 13.76538 739 ft 58 kts 221°
2026-05-07 14:06 51.12949 13.76133 746 ft 54 kts 221°
2026-05-07 14:06 51.12674 13.75757 755 ft 45 kts 220°
2026-05-07 14:06 51.12482 13.75527 763 ft 15 kts 193°
2026-05-07 14:06 51.12439 13.75553 762 ft 6 kts 129°
2026-05-07 14:07 51.12416 13.75607 759 ft 6 kts 124°
2026-05-07 14:07 51.12397 13.75658 759 ft 4 kts 115°
2026-05-07 14:07 51.12381 13.75720 760 ft 11 kts 111°
2026-05-07 14:07 51.12381 13.75828 755 ft 9 kts 43°
2026-05-07 14:08 51.12424 13.75886 758 ft 7 kts 41°
2026-05-07 14:08 51.12428 13.75942 758 ft 7 kts 138°
2026-05-07 14:08 51.12409 13.75985 757 ft 0 kts 52°
2026-05-07 14:08 51.12413 13.75991 757 ft 0 kts 36°